< Typhoon 201317 2013 Season Typhoon 201319 >
Typhoon 201318 (MAN-YI)
General InformationTrack Information on Google MapsDetailed Wind InformationForecast History on Google MapsAccess Analytics MapList of All Images || NewsDisaster Info.WeblogTrackbackTyphoon FrontTwiphoonTyphoon Now!Typhoon ImaginationDisaster Info. XMLResourceGoogle EarthGE AnimationAtom FeedGeoJSON
Detalied Best Track (Time Zone = UTC)
Year Month Day Hour Lat. Long. Pressure (hPa) Wind (kt) Class Image Chart
2013 9 11 18 19.7 148.1 1008 0 2 Image Chart
2013 9 12 00 20.3 146.9 1008 0 2 Image Chart
2013 9 12 06 20.7 145.6 1008 0 2 Image Chart
2013 9 12 12 21.0 145.0 1008 0 2 Image Chart
2013 9 12 18 21.0 144.0 1004 0 2 Image Chart
2013 9 13 00 22.0 142.1 998 35 3 Image Chart
2013 9 13 06 23.3 140.7 994 35 3 Image Chart
2013 9 13 12 23.5 140.0 994 35 3 Image Chart
2013 9 13 18 23.6 138.7 990 40 3 Image Chart
2013 9 14 00 24.0 137.3 990 45 3 Image Chart
2013 9 14 06 25.0 136.5 985 50 4 Image Chart
2013 9 14 12 26.1 135.8 985 50 4 Image Chart
2013 9 14 18 27.4 135.0 985 50 4 Image Chart
2013 9 15 00 28.7 134.3 980 50 4 Image Chart
2013 9 15 06 30.0 134.5 975 50 4 Image Chart
2013 9 15 12 31.5 135.0 960 65 5 Image Chart
2013 9 15 15 32.1 135.3 960 65 5 Image Chart
2013 9 15 18 32.9 136.0 960 65 5 Image Chart
2013 9 15 21 33.9 136.9 960 65 5 Image Chart
2013 9 15 22 34.5 137.3 965 60 4 Image Chart
2013 9 16 00 35.3 137.7 975 60 4 Image Chart
2013 9 16 03 36.3 138.9 985 50 4 Image Chart
2013 9 16 06 38.4 141.1 985 50 4 Image Chart
2013 9 16 09 40.5 143.0 985 50 4 Image Chart
2013 9 16 12 42.0 145.0 980 0 6 Image Chart
2013 9 16 18 45.6 150.0 978 0 6 Image Chart
2013 9 17 00 49.1 153.9 972 0 6 Image Chart
2013 9 17 06 52.2 156.2 964 0 6 Image Chart
2013 9 17 12 55.0 156.0 964 0 6 Image Chart
2013 9 17 18 56.2 156.7 960 0 6 Image Chart
2013 9 18 00 57.2 157.5 966 0 6 Image Chart
2013 9 18 06 58.0 160.4 970 0 6 Image Chart
2013 9 18 12 59.0 161.9 976 0 6 Image Chart
2013 9 18 18 59.4 163.7 980 0 6 Image Chart
2013 9 19 00 59.7 163.0 984 0 6 Image Chart
2013 9 19 06 60.9 163.1 988 0 6 Image Chart
2013 9 19 12 59.8 164.4 996 0 6 Image Chart
2013 9 19 18 59.8 165.6 996 0 6 Image Chart
2013 9 20 00 59.5 166.7 998 0 6 Image Chart
2013 9 20 06 59.1 170.0 998 0 6 Image Chart
2013 9 20 12 58.9 168.6 998 0 6 Image Chart
Japan Meteorological Agency Best Track Data | Correction Date : 2013-10-15
< Typhoon 201317 2013 Season Typhoon 201319 >

Help